Time;durP1;ratioP1;P1;durP2;ratioP2;P2;SDS_P1;SDS_P2;PMS_P1;PMS_P2;Temp;Humidity;BMP_temperature;BMP_pressure;BME280_temperature;BME280_humidity;BME280_pressure;Samples;Min_cycle;Max_cycle;Signal;HPM_P1;HPM_P2
2021/12/22 00:00:39;;;;;;;;;;;-0.10;99.90;;;;;;5047520;28;19931;-82
2021/12/22 00:03:09;;;;;;;;;;;-0.10;99.90;;;;;;5027267;28;19925;-82
2021/12/22 00:05:44;;;;;;;;;;;1.10;99.90;;;;;;5026760;28;19925;-80
2021/12/22 00:08:13;;;;;;;;;;;-0.10;99.90;;;;;;5042326;28;19925;-81
2021/12/22 00:10:42;;;;;;;;;;;-0.10;99.90;;;;;;5043364;28;19935;-79
2021/12/22 00:13:35;;;;;;;;;;;-0.10;99.90;;;;;;5043267;28;19929;-81
2021/12/22 00:16:03;;;;;;;;;;;0.40;99.90;;;;;;5044747;28;19925;-81
2021/12/22 00:18:31;;;;;;;;;;;-0.10;99.90;;;;;;5027502;28;19929;-81
2021/12/22 00:21:06;;;;;;;;;;;0.20;99.90;;;;;;5043539;28;20302;-82
2021/12/22 00:23:33;;;;;;;;;;;-0.10;99.90;;;;;;5044459;28;19932;-80
2021/12/22 00:26:05;;;;;;;;;;;0.10;99.90;;;;;;5044033;28;19940;-80
2021/12/22 00:32:08;;;;;;;;;;;-0.10;99.90;;;;;;5049853;28;19929;-81
2021/12/22 00:34:46;;;;;;;;;;;-0.10;99.90;;;;;;5026901;28;19935;-87
2021/12/22 00:37:39;;;;;;;;;;;-0.20;99.90;;;;;;5042775;28;19925;-84
2021/12/22 00:40:08;;;;;;;;;;;-0.20;99.90;;;;;;5038610;28;19932;-80
2021/12/22 00:42:36;;;;;;;;;;;-0.10;99.90;;;;;;5032728;28;19944;-82
2021/12/22 00:45:04;;;;;;;;;;;-0.20;99.90;;;;;;5050636;28;19968;-82
2021/12/22 00:51:19;;;;;;;;;;;0.00;99.90;;;;;;5087302;28;19934;-84
2021/12/22 01:00:47;;;;;;;;;;;-0.10;99.90;;;;;;5087742;28;19913;-83
2021/12/22 01:03:42;;;;;;;;;;;-0.10;99.90;;;;;;5068111;28;19929;-81
2021/12/22 01:06:13;;;;;;;;;;;-0.20;99.90;;;;;;5084427;28;19929;-81
2021/12/22 01:08:42;;;;;;;;;;;-0.40;99.90;;;;;;5063127;28;19924;-83
2021/12/22 01:11:10;;;;;;;;;;;-0.20;99.90;;;;;;5053925;28;20333;-81
2021/12/22 01:17:48;;;;;;;;;;;0.00;99.90;;;;;;5068026;28;19917;-83
2021/12/22 01:20:25;;;;;;;;;;;-0.20;99.90;;;;;;5050893;28;19928;-82
2021/12/22 01:23:02;;;;;;;;;;;-0.20;99.90;;;;;;5067551;28;19936;-83
2021/12/22 01:25:32;;;;;;;;;;;-0.20;99.90;;;;;;5053524;28;19933;-84
2021/12/22 01:28:01;;;;;;;;;;;-0.10;99.90;;;;;;5051929;28;20270;-82
2021/12/22 01:30:31;;;;;;;;;;;-0.70;99.90;;;;;;5062878;28;19925;-85
2021/12/22 01:33:01;;;;;;;;;;;0.00;99.90;;;;;;5088384;28;19925;-82
2021/12/22 01:35:33;;;;;;;;;;;-0.30;99.90;;;;;;5069911;28;19928;-82
2021/12/22 01:38:02;;;;;;;;;;;-0.30;99.90;;;;;;5069424;28;19938;-82
2021/12/22 01:40:30;;;;;;;;;;;-0.30;99.90;;;;;;5070126;28;19944;-82
2021/12/22 01:43:01;;;;;;;;;;;-1.00;99.90;;;;;;5066933;28;19924;-83
2021/12/22 01:46:08;;;;;;;;;;;0.00;99.90;;;;;;5087704;28;19930;-82
2021/12/22 01:51:56;;;;;;;;;;;-0.20;99.90;;;;;;5053028;28;19913;-82
2021/12/22 01:55:13;;;;;;;;;;;-0.20;99.90;;;;;;5053825;28;19924;-81
2021/12/22 01:57:46;;;;;;;;;;;-0.40;99.90;;;;;;5065563;28;19929;-81
2021/12/22 02:00:16;;;;;;;;;;;-0.40;99.90;;;;;;5075703;28;19925;-83
2021/12/22 02:02:43;;;;;;;;;;;-0.20;99.90;;;;;;5049741;28;19924;-81
2021/12/22 02:05:38;;;;;;;;;;;-1.00;99.90;;;;;;5033692;28;19935;-82
2021/12/22 02:08:07;;;;;;;;;;;-0.50;99.90;;;;;;5047922;28;20000;-81
2021/12/22 02:10:37;;;;;;;;;;;-0.30;99.90;;;;;;5068005;28;19931;-81
2021/12/22 02:13:14;;;;;;;;;;;-0.50;99.90;;;;;;5049490;28;19937;-81
2021/12/22 02:19:24;;;;;;;;;;;-0.60;99.90;;;;;;5088928;28;20377;-81
2021/12/22 02:21:56;;;;;;;;;;;-0.70;99.90;;;;;;5071102;28;19925;-80
2021/12/22 02:24:24;;;;;;;;;;;-0.60;99.90;;;;;;5053614;28;19925;-80
2021/12/22 02:27:26;;;;;;;;;;;-0.50;99.90;;;;;;5072996;28;19934;-81
2021/12/22 02:30:00;;;;;;;;;;;-0.70;99.90;;;;;;5089147;28;19924;-80
2021/12/22 02:35:17;;;;;;;;;;;-0.70;99.90;;;;;;5087269;28;19943;-81
2021/12/22 02:37:46;;;;;;;;;;;-0.70;99.90;;;;;;5054971;28;19924;-83
2021/12/22 02:40:18;;;;;;;;;;;-0.60;99.90;;;;;;5053270;28;19928;-81
2021/12/22 02:43:11;;;;;;;;;;;-0.80;99.90;;;;;;5068896;28;19928;-81
2021/12/22 02:46:04;;;;;;;;;;;-0.60;99.90;;;;;;5045506;28;19948;-81
2021/12/22 02:55:43;;;;;;;;;;;-0.50;99.90;;;;;;5027383;28;19936;-83
2021/12/22 03:04:03;;;;;;;;;;;-0.80;99.90;;;;;;5028677;28;19925;-84
2021/12/22 03:06:38;;;;;;;;;;;-0.80;99.90;;;;;;5027506;28;20349;-81
2021/12/22 03:09:26;;;;;;;;;;;-0.70;99.90;;;;;;5045096;28;19925;-83
2021/12/22 03:12:21;;;;;;;;;;;-0.70;99.90;;;;;;5044903;28;19932;-81
2021/12/22 03:14:49;;;;;;;;;;;-0.90;99.90;;;;;;5043999;28;19932;-83
2021/12/22 03:17:17;;;;;;;;;;;-0.80;99.90;;;;;;5045315;28;19926;-82
2021/12/22 03:19:48;;;;;;;;;;;-0.90;99.90;;;;;;5028224;28;19929;-81
2021/12/22 03:22:19;;;;;;;;;;;-1.30;99.90;;;;;;5045915;28;19943;-81
2021/12/22 03:31:25;;;;;;;;;;;-1.00;99.90;;;;;;5040243;28;19925;-82
2021/12/22 03:33:53;;;;;;;;;;;-1.00;99.90;;;;;;5040673;28;19937;-81
2021/12/22 03:36:21;;;;;;;;;;;-1.00;99.90;;;;;;5019485;28;19935;-81
2021/12/22 03:38:49;;;;;;;;;;;-1.10;99.90;;;;;;5040644;28;19931;-80
2021/12/22 03:41:18;;;;;;;;;;;-1.10;99.90;;;;;;5047124;28;19932;-81
2021/12/22 03:43:46;;;;;;;;;;;-1.10;99.90;;;;;;5032988;28;19936;-81
2021/12/22 03:46:14;;;;;;;;;;;-1.20;99.90;;;;;;5030722;28;19928;-83
2021/12/22 03:48:42;;;;;;;;;;;-0.90;99.90;;;;;;5065388;28;19932;-83
2021/12/22 03:51:11;;;;;;;;;;;-1.00;99.90;;;;;;5064638;28;19928;-82
2021/12/22 03:53:39;;;;;;;;;;;-0.80;99.90;;;;;;5064227;28;20468;-81
2021/12/22 03:56:07;;;;;;;;;;;-1.10;99.90;;;;;;5052535;28;19933;-84
2021/12/22 03:58:35;;;;;;;;;;;-1.00;99.90;;;;;;5048111;28;19971;-82
2021/12/22 04:01:04;;;;;;;;;;;-0.90;99.90;;;;;;5045956;28;19928;-81
2021/12/22 04:03:35;;;;;;;;;;;-1.10;99.90;;;;;;5065707;28;19931;-80
2021/12/22 04:06:05;;;;;;;;;;;-1.00;99.90;;;;;;5048414;28;19924;-82
2021/12/22 04:08:33;;;;;;;;;;;-1.00;99.90;;;;;;5066711;28;19931;-81
2021/12/22 04:14:23;;;;;;;;;;;-0.80;99.90;;;;;;5063493;28;19933;-79
2021/12/22 04:16:50;;;;;;;;;;;-1.00;99.90;;;;;;5063536;28;19936;-83
2021/12/22 04:19:43;;;;;;;;;;;-1.00;99.90;;;;;;5030107;28;19935;-80
2021/12/22 04:22:12;;;;;;;;;;;-1.00;99.90;;;;;;5030194;28;19952;-80
2021/12/22 04:28:07;;;;;;;;;;;-0.60;99.90;;;;;;5063230;28;20030;-82
2021/12/22 04:31:01;;;;;;;;;;;-0.70;99.90;;;;;;5048726;28;20254;-81
2021/12/22 04:33:30;;;;;;;;;;;-1.10;99.90;;;;;;5065478;28;19935;-82
2021/12/22 04:35:58;;;;;;;;;;;-1.10;99.90;;;;;;5027058;28;19925;-80
2021/12/22 04:38:26;;;;;;;;;;;-1.10;99.90;;;;;;5040435;28;19932;-81
2021/12/22 04:40:54;;;;;;;;;;;-1.10;99.90;;;;;;5063845;28;19939;-80
2021/12/22 04:43:22;;;;;;;;;;;-1.10;99.90;;;;;;5064682;28;20394;-80
2021/12/22 04:45:49;;;;;;;;;;;-1.10;99.90;;;;;;5048939;28;20283;-82
2021/12/22 04:48:17;;;;;;;;;;;-1.00;99.90;;;;;;5033157;28;19935;-80
2021/12/22 04:50:47;;;;;;;;;;;-1.20;99.90;;;;;;5066119;28;19932;-80
2021/12/22 04:53:54;;;;;;;;;;;-1.10;99.90;;;;;;5066330;28;19924;-82
2021/12/22 04:56:22;;;;;;;;;;;-1.20;99.90;;;;;;5065445;28;19928;-80
2021/12/22 04:59:17;;;;;;;;;;;-1.20;99.90;;;;;;5083143;28;19924;-81
2021/12/22 05:01:52;;;;;;;;;;;-1.20;99.90;;;;;;5083319;28;19925;-81
2021/12/22 05:04:20;;;;;;;;;;;-1.00;99.90;;;;;;5066030;28;19924;-81
2021/12/22 05:10:08;;;;;;;;;;;-1.20;99.90;;;;;;5046194;28;20762;-80
2021/12/22 05:12:36;;;;;;;;;;;-1.30;99.90;;;;;;5029900;28;20514;-80
2021/12/22 05:15:04;;;;;;;;;;;-0.50;99.90;;;;;;5046626;28;19925;-79
2021/12/22 05:20:54;;;;;;;;;;;-1.30;99.90;;;;;;5066005;28;20330;-78
2021/12/22 05:23:22;;;;;;;;;;;-1.30;99.90;;;;;;5047108;28;19933;-80
2021/12/22 05:25:50;;;;;;;;;;;-0.60;99.90;;;;;;5069905;28;19924;-79
2021/12/22 05:28:18;;;;;;;;;;;-1.30;99.90;;;;;;5083519;28;19924;-79
2021/12/22 05:30:47;;;;;;;;;;;-1.30;99.90;;;;;;5049703;28;19931;-78
2021/12/22 05:33:43;;;;;;;;;;;-1.30;99.90;;;;;;5048081;28;19931;-80
2021/12/22 05:36:12;;;;;;;;;;;-1.30;99.90;;;;;;5050103;28;19924;-80
2021/12/22 05:38:40;;;;;;;;;;;-1.30;99.90;;;;;;5054096;28;19925;-79
2021/12/22 05:41:28;;;;;;;;;;;-1.30;99.90;;;;;;5032526;28;19924;-79
2021/12/22 05:43:56;;;;;;;;;;;-1.30;99.90;;;;;;5042191;28;19929;-80
2021/12/22 05:46:24;;;;;;;;;;;-1.30;99.90;;;;;;5042490;28;19925;-81
2021/12/22 05:48:53;;;;;;;;;;;-1.40;99.90;;;;;;5041499;28;19937;-82
2021/12/22 05:51:22;;;;;;;;;;;-1.40;99.90;;;;;;5043013;28;19935;-83
2021/12/22 05:53:50;;;;;;;;;;;-1.40;99.90;;;;;;5046156;28;19929;-81
2021/12/22 05:56:19;;;;;;;;;;;-1.40;99.90;;;;;;5011481;28;19925;-80
2021/12/22 05:59:11;;;;;;;;;;;-1.40;99.90;;;;;;5027846;28;19925;-80
2021/12/22 06:05:25;;;;;;;;;;;-1.40;99.90;;;;;;5024732;28;19929;-82
2021/12/22 06:07:53;;;;;;;;;;;-1.40;99.90;;;;;;5035446;28;19933;-81
2021/12/22 06:10:47;;;;;;;;;;;-1.80;99.90;;;;;;5045093;28;20401;-80
2021/12/22 06:13:15;;;;;;;;;;;-1.40;99.90;;;;;;5012512;28;19925;-82
2021/12/22 06:15:42;;;;;;;;;;;-1.40;99.90;;;;;;5046479;28;19939;-80
2021/12/22 06:18:41;;;;;;;;;;;-1.40;99.90;;;;;;5044100;28;20341;-80
2021/12/22 06:21:13;;;;;;;;;;;-1.40;99.90;;;;;;5037353;28;19926;-81
2021/12/22 06:24:13;;;;;;;;;;;-1.30;99.90;;;;;;5032400;28;19933;-82
2021/12/22 06:26:41;;;;;;;;;;;-1.30;99.90;;;;;;5035411;28;19936;-81
2021/12/22 06:29:09;;;;;;;;;;;-1.40;99.90;;;;;;5043808;28;19925;-82
2021/12/22 06:31:37;;;;;;;;;;;-1.10;99.90;;;;;;5040404;28;19933;-82
2021/12/22 06:34:05;;;;;;;;;;;-2.40;99.90;;;;;;5043854;28;19932;-80
2021/12/22 06:36:36;;;;;;;;;;;-1.40;99.90;;;;;;5060712;28;19936;-82
2021/12/22 06:39:35;;;;;;;;;;;-1.30;99.90;;;;;;5034112;28;19925;-80
2021/12/22 06:42:30;;;;;;;;;;;-1.40;99.90;;;;;;5044412;28;19935;-80
2021/12/22 06:45:02;;;;;;;;;;;-0.90;99.90;;;;;;5056599;28;19925;-81
2021/12/22 06:47:38;;;;;;;;;;;-1.30;99.90;;;;;;5044642;28;19933;-81
2021/12/22 06:50:07;;;;;;;;;;;-1.20;99.90;;;;;;5059852;28;19935;-80
2021/12/22 06:52:35;;;;;;;;;;;-1.30;99.90;;;;;;5042260;28;19929;-81
2021/12/22 06:55:04;;;;;;;;;;;-1.30;99.90;;;;;;5046717;28;19932;-80
2021/12/22 06:57:33;;;;;;;;;;;-1.30;99.90;;;;;;5064319;28;20185;-80
2021/12/22 07:00:03;;;;;;;;;;;-1.00;99.90;;;;;;5060864;28;19931;-81
2021/12/22 07:02:36;;;;;;;;;;;-1.30;99.90;;;;;;5044198;28;19944;-81
2021/12/22 07:05:08;;;;;;;;;;;-1.30;99.90;;;;;;5042848;28;19931;-81
2021/12/22 07:07:37;;;;;;;;;;;-1.30;99.90;;;;;;5059592;28;19929;-82
2021/12/22 07:10:43;;;;;;;;;;;-1.40;99.90;;;;;;5049448;28;19931;-82
2021/12/22 07:13:35;;;;;;;;;;;-1.30;99.90;;;;;;5042174;28;20600;-82
2021/12/22 07:16:29;;;;;;;;;;;-1.30;99.90;;;;;;5219013;22;19931;-79
2021/12/22 07:18:57;;;;;;;;;;;-1.40;99.90;;;;;;4995317;28;19940;-80
2021/12/22 07:21:31;;;;;;;;;;;-1.40;99.90;;;;;;5011064;28;19952;-80
2021/12/22 07:23:58;;;;;;;;;;;-1.40;99.90;;;;;;5006359;28;19951;-80
2021/12/22 07:26:26;;;;;;;;;;;-1.40;99.90;;;;;;5043100;28;19929;-80
2021/12/22 07:28:59;;;;;;;;;;;-1.40;99.90;;;;;;5012238;28;19929;-84
2021/12/22 07:31:27;;;;;;;;;;;-1.40;99.90;;;;;;5035383;28;19932;-83
2021/12/22 07:33:58;;;;;;;;;;;-1.40;99.90;;;;;;5024642;28;19925;-83
2021/12/22 07:36:28;;;;;;;;;;;-1.40;99.90;;;;;;5026789;28;19925;-81
2021/12/22 07:39:00;;;;;;;;;;;-1.40;99.90;;;;;;5012398;28;19929;-86
2021/12/22 07:41:31;;;;;;;;;;;-1.30;99.90;;;;;;5027131;28;19933;-82
2021/12/22 07:44:24;;;;;;;;;;;-1.40;99.90;;;;;;5043526;28;19932;-81
2021/12/22 07:46:57;;;;;;;;;;;-1.30;99.90;;;;;;5039149;28;19929;-81
2021/12/22 07:49:56;;;;;;;;;;;-1.40;99.90;;;;;;5024929;28;20297;-80
2021/12/22 07:52:27;;;;;;;;;;;-1.40;99.90;;;;;;4998919;28;20310;-80
2021/12/22 07:54:55;;;;;;;;;;;-1.40;99.90;;;;;;5024797;28;19925;-79
2021/12/22 07:57:48;;;;;;;;;;;-1.40;99.90;;;;;;5008172;28;19925;-82
2021/12/22 08:00:16;;;;;;;;;;;-1.20;99.90;;;;;;5010884;28;19928;-80
2021/12/22 08:02:44;;;;;;;;;;;-1.40;99.90;;;;;;5025183;28;19926;-79
2021/12/22 08:05:32;;;;;;;;;;;-1.40;99.90;;;;;;5022993;28;20036;-79
2021/12/22 08:08:00;;;;;;;;;;;-1.40;99.90;;;;;;5029008;28;19929;-83
2021/12/22 08:10:28;;;;;;;;;;;-1.30;99.90;;;;;;5008432;28;19933;-80
2021/12/22 08:12:58;;;;;;;;;;;-1.30;99.90;;;;;;5006889;28;19929;-83
2021/12/22 08:15:26;;;;;;;;;;;-1.30;99.90;;;;;;5036627;28;19940;-83
2021/12/22 08:24:32;;;;;;;;;;;-3.00;99.90;;;;;;5030170;28;19925;-83
2021/12/22 08:27:00;;;;;;;;;;;-1.20;99.90;;;;;;5043845;28;19924;-84
2021/12/22 08:29:53;;;;;;;;;;;-1.00;99.90;;;;;;5061466;28;19940;-80
2021/12/22 08:42:08;;;;;;;;;;;-1.00;99.90;;;;;;5044265;28;19923;-80
2021/12/22 08:45:00;;;;;;;;;;;-0.90;99.90;;;;;;5051050;28;19956;-81
2021/12/22 08:47:28;;;;;;;;;;;-0.90;99.90;;;;;;5026544;28;19948;-81
2021/12/22 08:49:56;;;;;;;;;;;-0.80;99.90;;;;;;5062766;28;19933;-83
2021/12/22 08:52:24;;;;;;;;;;;-0.80;99.90;;;;;;5060116;28;20337;-79
2021/12/22 08:54:51;;;;;;;;;;;-0.80;99.90;;;;;;5045068;28;20212;-79
2021/12/22 08:57:20;;;;;;;;;;;-0.70;99.90;;;;;;5022535;28;19936;-83
2021/12/22 08:59:48;;;;;;;;;;;-0.70;99.90;;;;;;5022780;28;19925;-80
2021/12/22 09:05:58;;;;;;;;;;;-0.60;99.90;;;;;;5069403;28;19916;-82
2021/12/22 09:08:27;;;;;;;;;;;-0.50;99.90;;;;;;5037721;28;19935;-82
2021/12/22 09:10:55;;;;;;;;;;;-0.50;99.90;;;;;;5044507;28;19998;-83
2021/12/22 09:13:23;;;;;;;;;;;-0.40;99.90;;;;;;5053868;28;19936;-82
2021/12/22 09:15:51;;;;;;;;;;;-0.40;99.90;;;;;;5063116;28;20429;-82
2021/12/22 09:18:18;;;;;;;;;;;-0.20;99.90;;;;;;5039401;28;19925;-81
2021/12/22 09:20:46;;;;;;;;;;;-0.20;99.90;;;;;;5073913;28;19924;-80
2021/12/22 09:23:17;;;;;;;;;;;-0.10;99.90;;;;;;5063990;28;19925;-80
2021/12/22 09:25:45;;;;;;;;;;;-0.20;99.90;;;;;;5047947;28;20332;-83
2021/12/22 09:28:13;;;;;;;;;;;0.00;99.90;;;;;;5069252;28;19939;-84
2021/12/22 09:35:06;;;;;;;;;;;0.40;99.90;;;;;;5075370;28;19922;-86
2021/12/22 09:38:02;;;;;;;;;;;0.40;99.90;;;;;;5052903;28;19925;-84
2021/12/22 09:40:48;;;;;;;;;;;0.50;99.90;;;;;;5070446;28;19932;-80
2021/12/22 09:43:16;;;;;;;;;;;0.60;99.90;;;;;;5051793;28;19931;-80
2021/12/22 09:45:49;;;;;;;;;;;0.70;99.90;;;;;;5038728;28;19935;-81
2021/12/22 09:48:32;;;;;;;;;;;0.80;99.90;;;;;;5088060;28;20282;-81
2021/12/22 09:53:29;;;;;;;;;;;0.90;99.90;;;;;;5059231;28;19925;-80
2021/12/22 09:56:00;;;;;;;;;;;1.00;99.90;;;;;;5063348;28;19939;-86
2021/12/22 10:02:16;;;;;;;;;;;1.30;99.90;;;;;;5076345;28;19916;-81
2021/12/22 10:04:44;;;;;;;;;;;1.40;99.90;;;;;;5058822;28;19929;-81
2021/12/22 10:07:19;;;;;;;;;;;1.50;99.90;;;;;;5075059;28;20565;-80
2021/12/22 10:09:48;;;;;;;;;;;1.70;99.90;;;;;;5047675;28;19929;-82
2021/12/22 10:12:21;;;;;;;;;;;1.60;99.90;;;;;;5035576;28;19932;-82
2021/12/22 10:15:14;;;;;;;;;;;1.80;99.90;;;;;;5055618;28;19947;-84
2021/12/22 10:17:44;;;;;;;;;;;1.90;99.90;;;;;;5041676;28;20440;-80
2021/12/22 10:20:13;;;;;;;;;;;2.00;99.90;;;;;;5054750;28;20012;-81
2021/12/22 10:22:42;;;;;;;;;;;2.00;99.90;;;;;;5051503;28;20346;-82
2021/12/22 10:28:51;;;;;;;;;;;2.20;99.90;;;;;;5042828;28;19912;-82
2021/12/22 10:31:21;;;;;;;;;;;2.30;99.90;;;;;;5062115;28;19933;-82
2021/12/22 10:33:49;;;;;;;;;;;2.60;99.90;;;;;;5056845;28;20554;-81
2021/12/22 10:39:54;;;;;;;;;;;2.60;99.90;;;;;;5058957;28;19917;-82
2021/12/22 10:42:38;;;;;;;;;;;2.70;99.90;;;;;;5059405;28;19929;-80
2021/12/22 10:45:14;;;;;;;;;;;2.80;99.90;;;;;;5041785;28;19947;-82
2021/12/22 10:54:34;;;;;;;;;;;3.10;99.90;;;;;;5073365;28;19932;-83
2021/12/22 10:57:05;;;;;;;;;;;3.30;99.90;;;;;;5058159;28;20284;-80
2021/12/22 10:59:49;;;;;;;;;;;3.60;99.90;;;;;;5060343;28;19939;-81
2021/12/22 11:14:01;;;;;;;;;;;3.70;99.90;;;;;;5059509;28;19917;-79
2021/12/22 11:16:54;;;;;;;;;;;3.80;99.90;;;;;;5061270;28;19925;-79
2021/12/22 11:20:03;;;;;;;;;;;3.90;99.90;;;;;;5058812;28;19932;-79
2021/12/22 11:22:51;;;;;;;;;;;3.90;99.90;;;;;;5061212;28;19925;-80
2021/12/22 11:25:22;;;;;;;;;;;4.00;99.90;;;;;;5040410;28;19931;-81
2021/12/22 11:27:51;;;;;;;;;;;4.00;99.90;;;;;;5057196;28;19933;-80
2021/12/22 11:30:19;;;;;;;;;;;4.20;99.90;;;;;;5060921;28;19925;-80
2021/12/22 11:32:48;;;;;;;;;;;3.10;99.90;;;;;;5059648;28;19932;-80
2021/12/22 11:35:16;;;;;;;;;;;4.10;99.90;;;;;;5058069;28;19935;-80
2021/12/22 11:37:44;;;;;;;;;;;4.20;99.90;;;;;;5055042;28;19940;-83
2021/12/22 11:40:14;;;;;;;;;;;3.40;99.90;;;;;;5040245;28;21216;-80
2021/12/22 11:42:45;;;;;;;;;;;3.20;99.90;;;;;;5058020;28;19932;-83
2021/12/22 11:45:17;;;;;;;;;;;4.30;99.90;;;;;;5057233;28;20181;-79
2021/12/22 11:47:46;;;;;;;;;;;4.30;99.90;;;;;;5040641;28;19925;-80
2021/12/22 11:50:19;;;;;;;;;;;4.50;99.90;;;;;;5037800;28;19929;-79
2021/12/22 11:52:55;;;;;;;;;;;4.40;99.90;;;;;;5041740;28;19929;-80
2021/12/22 11:55:28;;;;;;;;;;;4.50;99.90;;;;;;5059227;28;19939;-79
2021/12/22 11:58:14;;;;;;;;;;;4.60;99.90;;;;;;5010923;28;19928;-79
2021/12/22 12:00:43;;;;;;;;;;;4.60;99.90;;;;;;5025504;28;19929;-79
2021/12/22 12:03:20;;;;;;;;;;;4.70;99.90;;;;;;5040776;28;19936;-81
2021/12/22 12:06:08;;;;;;;;;;;4.70;99.90;;;;;;5039935;28;19925;-82
2021/12/22 12:08:43;;;;;;;;;;;4.80;99.90;;;;;;5040119;28;19924;-80
2021/12/22 12:11:15;;;;;;;;;;;4.80;99.90;;;;;;5038791;28;19924;-80
2021/12/22 12:13:54;;;;;;;;;;;4.90;99.90;;;;;;5040070;28;19932;-79
2021/12/22 12:22:32;;;;;;;;;;;5.00;99.90;;;;;;5077150;28;19928;-80
2021/12/22 12:25:03;;;;;;;;;;;5.00;99.90;;;;;;5025312;28;19929;-80
2021/12/22 12:27:31;;;;;;;;;;;5.00;99.90;;;;;;5044051;28;19924;-79
2021/12/22 12:29:59;;;;;;;;;;;4.90;99.90;;;;;;5044944;28;19932;-79
2021/12/22 12:32:40;;;;;;;;;;;3.60;99.90;;;;;;5059982;28;20220;-81
2021/12/22 12:35:28;;;;;;;;;;;5.10;99.90;;;;;;5043329;28;19932;-79
2021/12/22 12:37:58;;;;;;;;;;;5.10;99.90;;;;;;5076634;28;19933;-80
2021/12/22 12:40:49;;;;;;;;;;;5.10;99.90;;;;;;5059362;28;19929;-82
2021/12/22 12:43:42;;;;;;;;;;;5.20;99.90;;;;;;4998333;28;19936;-79
2021/12/22 12:46:23;;;;;;;;;;;5.40;99.90;;;;;;5066947;28;19924;-79
2021/12/22 12:49:07;;;;;;;;;;;5.10;99.90;;;;;;5068099;28;19928;-81
2021/12/22 12:51:47;;;;;;;;;;;5.20;99.90;;;;;;5079899;28;19924;-81
2021/12/22 12:54:15;;;;;;;;;;;5.10;99.90;;;;;;5062452;28;19932;-81
2021/12/22 13:01:12;;;;;;;;;;;5.20;99.90;;;;;;5076640;28;19920;-78
2021/12/22 13:03:47;;;;;;;;;;;5.50;99.90;;;;;;5078679;28;19940;-82
2021/12/22 13:06:28;;;;;;;;;;;5.20;99.90;;;;;;5080953;28;19925;-82
2021/12/22 13:08:56;;;;;;;;;;;5.20;99.90;;;;;;5057967;28;19933;-82
2021/12/22 13:11:24;;;;;;;;;;;4.70;99.90;;;;;;5047243;28;20822;-78
2021/12/22 13:16:41;;;;;;;;;;;5.20;99.90;;;;;;5079469;28;19940;-80
2021/12/22 13:19:28;;;;;;;;;;;6.10;99.90;;;;;;5081477;28;20018;-79
2021/12/22 13:22:28;;;;;;;;;;;5.20;99.90;;;;;;5068157;28;19919;-80
2021/12/22 13:25:33;;;;;;;;;;;5.20;99.90;;;;;;5063607;28;19932;-79
2021/12/22 13:28:06;;;;;;;;;;;5.20;99.90;;;;;;5044001;28;19928;-79
2021/12/22 13:30:37;;;;;;;;;;;5.10;99.90;;;;;;5079046;28;19932;-79
2021/12/22 13:33:07;;;;;;;;;;;5.10;99.90;;;;;;5061997;28;19925;-80
2021/12/22 13:38:35;;;;;;;;;;;5.10;99.90;;;;;;4982527;28;19932;-80
2021/12/22 13:41:06;;;;;;;;;;;5.10;99.90;;;;;;4999447;28;19926;-79
2021/12/22 13:43:43;;;;;;;;;;;5.10;99.90;;;;;;4953314;28;19934;-79
2021/12/22 13:46:36;;;;;;;;;;;5.20;99.90;;;;;;4985062;28;19940;-82
2021/12/22 13:49:15;;;;;;;;;;;5.20;99.90;;;;;;4971062;28;19925;-80
2021/12/22 13:51:44;;;;;;;;;;;5.20;99.90;;;;;;5003177;28;19933;-78
2021/12/22 13:54:13;;;;;;;;;;;5.20;99.90;;;;;;5001430;28;19926;-80
2021/12/22 13:56:43;;;;;;;;;;;5.20;99.90;;;;;;4979871;28;20566;-79
2021/12/22 13:59:15;;;;;;;;;;;5.20;99.90;;;;;;4987977;28;19936;-79
2021/12/22 14:01:45;;;;;;;;;;;5.20;99.90;;;;;;5003364;28;19945;-80
2021/12/22 14:04:19;;;;;;;;;;;5.20;99.90;;;;;;5004675;28;19944;-79
2021/12/22 14:06:53;;;;;;;;;;;6.20;99.90;;;;;;4986873;28;19926;-84
2021/12/22 14:09:24;;;;;;;;;;;3.90;99.90;;;;;;4988640;28;20306;-80
2021/12/22 14:16:36;;;;;;;;;;;5.30;99.90;;;;;;5003746;28;19922;-79
2021/12/22 14:19:13;;;;;;;;;;;5.30;99.90;;;;;;5002218;28;20527;-80
2021/12/22 14:21:41;;;;;;;;;;;5.30;99.90;;;;;;4986357;28;19945;-79
2021/12/22 14:24:10;;;;;;;;;;;5.30;99.90;;;;;;4986632;28;19926;-78
2021/12/22 14:27:45;;;;;;;;;;;5.30;99.90;;;;;;5002284;28;19940;-83
2021/12/22 14:30:13;;;;;;;;;;;5.30;99.90;;;;;;4985679;28;19925;-78
2021/12/22 14:33:07;;;;;;;;;;;5.30;99.90;;;;;;4971181;28;19940;-81
2021/12/22 14:38:52;;;;;;;;;;;5.30;99.90;;;;;;4958038;29;19931;-79
2021/12/22 14:41:27;;;;;;;;;;;5.30;99.90;;;;;;4947152;29;19931;-79
2021/12/22 14:43:55;;;;;;;;;;;5.30;99.90;;;;;;4963958;29;19927;-78
2021/12/22 14:50:10;;;;;;;;;;;5.20;99.90;;;;;;4958650;28;19937;-79
2021/12/22 14:53:02;;;;;;;;;;;5.20;99.90;;;;;;4962396;28;19931;-79
2021/12/22 14:55:46;;;;;;;;;;;5.20;99.90;;;;;;4946512;29;20179;-78
2021/12/22 14:58:16;;;;;;;;;;;5.10;99.90;;;;;;4962723;29;19945;-80
2021/12/22 15:00:46;;;;;;;;;;;5.10;99.90;;;;;;4944063;29;19935;-80
2021/12/22 15:10:33;;;;;;;;;;;5.00;99.90;;;;;;4960438;28;19919;-78
2021/12/22 15:13:25;;;;;;;;;;;4.90;99.90;;;;;;4963471;29;19934;-77
2021/12/22 15:15:54;;;;;;;;;;;4.90;99.90;;;;;;4961652;29;20290;-79
2021/12/22 15:22:24;;;;;;;;;;;4.90;99.90;;;;;;4966858;28;19928;-78
2021/12/22 15:24:52;;;;;;;;;;;4.90;99.90;;;;;;4929853;29;19937;-79
2021/12/22 15:27:20;;;;;;;;;;;4.80;99.90;;;;;;4964034;29;19934;-78
2021/12/22 15:29:48;;;;;;;;;;;4.70;99.90;;;;;;4963886;29;19933;-78
2021/12/22 15:33:00;;;;;;;;;;;3.80;99.90;;;;;;4962222;29;20417;-80
2021/12/22 15:35:28;;;;;;;;;;;4.70;99.90;;;;;;4932362;29;19927;-77
2021/12/22 15:37:58;;;;;;;;;;;4.80;99.90;;;;;;4970353;28;19930;-80
2021/12/22 15:40:26;;;;;;;;;;;4.70;99.90;;;;;;4979202;28;19927;-79
2021/12/22 15:42:56;;;;;;;;;;;4.70;99.90;;;;;;4963436;28;19937;-78
2021/12/22 15:45:50;;;;;;;;;;;4.70;99.90;;;;;;4980378;28;19942;-77
2021/12/22 15:48:19;;;;;;;;;;;4.60;99.90;;;;;;4979532;28;19930;-78
2021/12/22 15:54:22;;;;;;;;;;;4.50;99.90;;;;;;4978939;28;19934;-79
2021/12/22 15:56:49;;;;;;;;;;;4.40;99.90;;;;;;4978881;28;19926;-83
2021/12/22 15:59:18;;;;;;;;;;;4.50;99.90;;;;;;4979565;28;19934;-79
2021/12/22 16:01:46;;;;;;;;;;;4.40;99.90;;;;;;4980681;28;19934;-79
2021/12/22 16:04:40;;;;;;;;;;;4.40;99.90;;;;;;4962762;28;19934;-79
2021/12/22 16:07:07;;;;;;;;;;;4.40;99.90;;;;;;4963764;28;19926;-80
2021/12/22 16:09:35;;;;;;;;;;;4.30;99.90;;;;;;4980201;28;19930;-84
2021/12/22 16:12:04;;;;;;;;;;;4.30;99.90;;;;;;4947772;28;19941;-80
2021/12/22 16:14:31;;;;;;;;;;;4.30;99.90;;;;;;4964248;28;19934;-79
2021/12/22 16:17:01;;;;;;;;;;;4.30;99.90;;;;;;4981528;28;20173;-80
2021/12/22 16:19:29;;;;;;;;;;;4.40;99.90;;;;;;4943883;28;19957;-79
2021/12/22 16:21:57;;;;;;;;;;;4.20;99.90;;;;;;4979335;28;19930;-78
2021/12/22 16:25:08;;;;;;;;;;;4.30;99.90;;;;;;4969389;28;20398;-78
2021/12/22 16:34:59;;;;;;;;;;;4.20;99.90;;;;;;4978445;28;19922;-78
2021/12/22 16:37:28;;;;;;;;;;;4.30;99.90;;;;;;4979277;28;19930;-78
2021/12/22 16:39:56;;;;;;;;;;;4.30;99.90;;;;;;4977640;28;19940;-77
2021/12/22 16:42:30;;;;;;;;;;;4.20;99.90;;;;;;4977748;28;19930;-78
2021/12/22 16:44:59;;;;;;;;;;;4.20;99.90;;;;;;4981382;28;19933;-77
2021/12/22 16:47:32;;;;;;;;;;;4.20;99.90;;;;;;4980295;28;20371;-79
2021/12/22 16:50:00;;;;;;;;;;;4.30;99.90;;;;;;4979085;28;19941;-78
2021/12/22 16:52:27;;;;;;;;;;;4.30;99.90;;;;;;4982933;28;19930;-80
2021/12/22 16:54:57;;;;;;;;;;;4.20;99.90;;;;;;4965706;28;19934;-77
2021/12/22 16:57:26;;;;;;;;;;;4.30;99.90;;;;;;4967169;28;19930;-79
2021/12/22 16:59:58;;;;;;;;;;;4.30;99.90;;;;;;4980076;28;19930;-79
2021/12/22 17:02:28;;;;;;;;;;;4.20;99.90;;;;;;4963202;28;19941;-78
2021/12/22 17:04:58;;;;;;;;;;;4.30;99.90;;;;;;4946833;28;19926;-78
2021/12/22 17:07:26;;;;;;;;;;;4.20;99.90;;;;;;4978856;28;20227;-84
2021/12/22 17:09:59;;;;;;;;;;;4.20;99.90;;;;;;4961859;28;19927;-81
2021/12/22 17:13:08;;;;;;;;;;;4.20;99.90;;;;;;4976240;28;19930;-80
2021/12/22 17:15:36;;;;;;;;;;;4.20;99.90;;;;;;4966971;28;19926;-77
2021/12/22 17:18:31;;;;;;;;;;;4.20;99.90;;;;;;4966569;28;20317;-78
2021/12/22 17:21:01;;;;;;;;;;;4.10;99.90;;;;;;4964874;28;19927;-80
2021/12/22 17:23:32;;;;;;;;;;;3.80;99.90;;;;;;4973881;28;19934;-79
2021/12/22 17:26:05;;;;;;;;;;;4.10;99.90;;;;;;4962515;28;19926;-79
2021/12/22 17:28:35;;;;;;;;;;;4.10;99.90;;;;;;4977817;28;19941;-79
2021/12/22 17:31:07;;;;;;;;;;;4.20;99.90;;;;;;4960479;28;20201;-82
2021/12/22 17:33:38;;;;;;;;;;;4.10;99.90;;;;;;4978184;28;19926;-82
2021/12/22 17:36:06;;;;;;;;;;;4.40;99.90;;;;;;4962850;28;19938;-78
2021/12/22 17:38:34;;;;;;;;;;;4.10;99.90;;;;;;4946592;28;19935;-78
2021/12/22 17:41:02;;;;;;;;;;;4.00;99.90;;;;;;4976173;28;20266;-78
2021/12/22 17:43:30;;;;;;;;;;;4.00;99.90;;;;;;4976498;28;19930;-80
2021/12/22 17:46:23;;;;;;;;;;;3.90;99.90;;;;;;4978130;28;19930;-81
2021/12/22 17:48:56;;;;;;;;;;;4.00;99.90;;;;;;4978718;28;19934;-80
2021/12/22 17:51:26;;;;;;;;;;;4.00;99.90;;;;;;4965047;28;20434;-78
2021/12/22 17:53:56;;;;;;;;;;;3.90;99.90;;;;;;4983664;28;19926;-79
2021/12/22 17:56:30;;;;;;;;;;;4.20;99.90;;;;;;4964520;28;19926;-78